createdAt,value
2019-05-06T00:11:19.873Z,5.14
2019-05-06T00:26:37.763Z,5.16
2019-05-06T00:41:46.543Z,5.44
2019-05-06T00:56:54.171Z,5.65
2019-05-06T01:12:03.733Z,6.03
2019-05-06T01:27:11.003Z,6.13
2019-05-06T01:42:19.650Z,6.28
2019-05-06T01:57:26.466Z,6.35
2019-05-06T02:12:34.261Z,6.43
2019-05-06T02:27:41.467Z,6.44
2019-05-06T02:42:49.122Z,6.45
2019-05-06T02:57:56.594Z,6.35
2019-05-06T03:13:04.427Z,6.39
2019-05-06T03:28:13.348Z,6.25
2019-05-06T03:43:23.273Z,6.39
2019-05-06T03:58:29.810Z,6.31
2019-05-06T04:13:38.288Z,6.40
2019-05-06T04:28:46.454Z,6.47
2019-05-06T04:43:53.681Z,6.63
2019-05-06T04:59:05.804Z,6.74
2019-05-06T05:14:13.365Z,6.99
2019-05-06T05:29:22.872Z,7.10
2019-05-06T05:44:44.448Z,7.23
2019-05-06T05:59:52.859Z,7.41
2019-05-06T06:15:02.270Z,7.23
2019-05-06T06:30:08.754Z,7.04
2019-05-06T06:45:15.806Z,7.25
2019-05-06T07:00:33.697Z,7.20
2019-05-06T07:15:42.579Z,7.40
2019-05-06T07:46:14.685Z,7.86
2019-05-06T08:01:25.859Z,7.55
2019-05-06T08:16:33.577Z,7.58
2019-05-06T08:31:42.951Z,7.89
2019-05-06T08:46:49.380Z,8.05
2019-05-06T09:02:03.354Z,8.56
2019-05-06T09:17:12.110Z,8.93
2019-05-06T09:32:23.359Z,9.18
2019-05-06T09:47:33.124Z,9.56
2019-05-06T10:02:42.888Z,9.77
2019-05-06T10:17:52.115Z,9.79
2019-05-06T10:33:02.088Z,9.60
2019-05-06T10:48:08.794Z,9.76
2019-05-06T11:03:23.123Z,10.32
2019-05-06T11:18:29.899Z,10.69
2019-05-06T11:33:42.557Z,10.15
2019-05-06T11:48:49.735Z,10.18
2019-05-06T12:03:57.515Z,10.05
2019-05-06T12:19:04.403Z,9.64
2019-05-06T12:34:12.495Z,9.08
2019-05-06T12:49:20.039Z,9.52
2019-05-06T13:04:46.283Z,10.12
2019-05-06T13:19:35.962Z,10.68
2019-05-06T13:34:43.240Z,11.04
2019-05-06T13:49:55.321Z,11.08
2019-05-06T14:05:03.033Z,10.65
2019-05-06T14:20:12.530Z,10.47
2019-05-06T14:35:23.092Z,10.73
2019-05-06T14:50:44.378Z,11.05
2019-05-06T15:05:39.211Z,11.09
2019-05-06T15:20:46.121Z,10.18
2019-05-06T15:36:02.380Z,10.24
2019-05-06T15:51:12.064Z,10.37
2019-05-06T16:06:18.874Z,10.24
2019-05-06T16:21:25.608Z,10.28
2019-05-06T16:36:33.587Z,10.29
2019-05-06T16:51:43.878Z,10.17
2019-05-06T17:06:52.308Z,9.89
2019-05-06T17:22:03.085Z,9.62
2019-05-06T17:37:16.019Z,10.60
2019-05-06T17:52:25.773Z,9.62
2019-05-06T18:07:34.453Z,9.03
2019-05-06T18:22:41.230Z,8.63
2019-05-06T18:37:48.493Z,8.57
2019-05-06T18:52:55.236Z,8.38
2019-05-06T19:08:04.392Z,7.98
2019-05-06T19:23:15.336Z,7.99
2019-05-06T19:38:24.485Z,8.01
2019-05-06T19:53:33.319Z,8.18
2019-05-06T20:08:44.512Z,8.35
2019-05-06T20:23:52.936Z,8.43
2019-05-06T20:39:02.349Z,8.38
2019-05-06T20:54:12.971Z,8.40
2019-05-06T21:09:23.107Z,8.35
2019-05-06T21:24:32.217Z,8.18
2019-05-06T21:39:45.207Z,8.04
2019-05-06T21:54:55.538Z,7.86
2019-05-06T22:10:02.865Z,7.94
2019-05-06T22:25:09.104Z,7.83
2019-05-06T22:40:16.294Z,7.63
2019-05-06T22:55:22.126Z,7.49
2019-05-06T23:10:28.627Z,7.58
2019-05-06T23:25:35.366Z,7.71
2019-05-06T23:41:36.700Z,7.60
2019-05-06T23:56:43.999Z,7.68
